createdAt,value
2022-08-23T00:00:13.720Z,659.34
2022-08-23T00:01:12.991Z,659.62
2022-08-23T00:02:23.574Z,660.33
2022-08-23T00:03:13.968Z,660.73
2022-08-23T00:04:12.925Z,661.06
2022-08-23T00:05:12.915Z,661.51
2022-08-23T00:06:12.910Z,661.98
2022-08-23T00:07:12.900Z,662.30
2022-08-23T00:08:12.863Z,662.42
2022-08-23T00:09:12.862Z,662.42
2022-08-23T00:10:12.866Z,662.64
2022-08-23T00:11:12.862Z,662.98
2022-08-23T00:12:12.856Z,663.23
2022-08-23T00:13:12.832Z,663.63
2022-08-23T00:14:12.805Z,663.80
2022-08-23T00:15:12.794Z,664.03
2022-08-23T00:16:12.820Z,664.05
2022-08-23T00:17:12.775Z,663.86
2022-08-23T00:18:13.762Z,663.94
2022-08-23T00:19:12.756Z,663.84
2022-08-23T00:20:12.746Z,664.07
2022-08-23T00:21:12.736Z,664.79
2022-08-23T00:22:12.738Z,665.05
2022-08-23T00:23:12.705Z,665.01
2022-08-23T00:24:12.706Z,664.66
2022-08-23T00:25:12.688Z,664.50
2022-08-23T00:26:12.677Z,664.30
2022-08-23T00:27:12.675Z,663.73
2022-08-23T00:28:15.048Z,663.41
2022-08-23T00:29:12.643Z,663.25
2022-08-23T00:30:12.648Z,663.39
2022-08-23T00:31:12.648Z,663.55
2022-08-23T00:32:12.610Z,663.72
2022-08-23T00:33:12.592Z,663.57
2022-08-23T00:34:12.595Z,663.34
2022-08-23T00:35:12.579Z,663.19
2022-08-23T00:36:13.580Z,662.98
2022-08-23T00:37:12.542Z,662.98
2022-08-23T00:38:34.066Z,662.86
2022-08-23T00:39:13.526Z,662.81
2022-08-23T00:40:12.580Z,663.14
2022-08-23T00:41:12.531Z,663.65
2022-08-23T00:42:12.489Z,664.15
2022-08-23T00:43:12.474Z,664.58
2022-08-23T00:44:12.477Z,664.87
2022-08-23T00:45:12.471Z,665.10
2022-08-23T00:46:12.461Z,665.43
2022-08-23T00:47:12.440Z,665.32
2022-08-23T00:48:12.431Z,665.21
2022-08-23T00:49:12.437Z,665.06
2022-08-23T00:50:23.686Z,665.38
2022-08-23T00:51:13.414Z,665.86
2022-08-23T00:52:12.407Z,666.75
2022-08-23T00:53:12.382Z,667.78
2022-08-23T00:54:12.362Z,668.60
2022-08-23T00:55:12.362Z,669.11
2022-08-23T00:56:12.355Z,669.60
2022-08-23T00:57:12.335Z,670.04
2022-08-23T00:58:12.312Z,670.68
2022-08-23T00:59:12.337Z,671.37
2022-08-23T01:00:12.296Z,671.66
2022-08-23T01:01:12.296Z,671.96
2022-08-23T01:02:12.360Z,672.24
2022-08-23T01:03:12.304Z,672.78
2022-08-23T01:04:12.244Z,672.79
2022-08-23T01:05:12.248Z,672.51
2022-08-23T01:06:12.243Z,672.13
2022-08-23T01:07:12.230Z,671.93
2022-08-23T01:08:12.227Z,671.79
2022-08-23T01:09:12.212Z,671.86
2022-08-23T01:10:14.936Z,671.84
2022-08-23T01:11:13.187Z,672.35
2022-08-23T01:12:12.177Z,672.91
2022-08-23T01:13:12.169Z,672.77
2022-08-23T01:14:12.143Z,673.05
2022-08-23T01:15:12.138Z,673.15
2022-08-23T01:16:12.117Z,672.72
2022-08-23T01:17:12.129Z,672.09
2022-08-23T01:18:12.102Z,672.04
2022-08-23T01:19:12.089Z,672.32
2022-08-23T01:20:12.067Z,673.25
2022-08-23T01:21:12.104Z,674.37
2022-08-23T01:22:12.060Z,675.26
2022-08-23T01:23:12.037Z,676.01
2022-08-23T01:24:18.079Z,676.35
2022-08-23T01:25:13.023Z,676.24
2022-08-23T01:26:12.000Z,676.30
2022-08-23T01:27:12.009Z,675.42
2022-08-23T01:28:11.987Z,674.97
2022-08-23T01:29:11.979Z,674.38
2022-08-23T01:30:11.979Z,673.90
2022-08-23T01:31:11.951Z,673.57
2022-08-23T01:32:11.961Z,673.45
2022-08-23T01:33:11.945Z,673.59
2022-08-23T01:34:11.936Z,674.34
2022-08-23T01:35:11.903Z,675.48
2022-08-23T01:36:11.912Z,676.82
2022-08-23T01:37:11.911Z,677.93
2022-08-23T01:38:11.883Z,678.98
2022-08-23T01:39:11.875Z,679.72
2022-08-23T01:40:11.932Z,680.62
2022-08-23T01:41:11.842Z,681.59
2022-08-23T01:42:11.862Z,682.25
2022-08-23T01:43:11.846Z,683.01
2022-08-23T01:44:11.815Z,683.59
2022-08-23T01:45:11.796Z,683.66
2022-08-23T01:46:11.806Z,683.78
2022-08-23T01:47:11.785Z,683.61
2022-08-23T01:48:11.797Z,684.08
2022-08-23T01:49:11.758Z,684.78
2022-08-23T01:50:11.745Z,685.28
2022-08-23T01:51:11.737Z,685.46
2022-08-23T01:52:11.738Z,685.18
2022-08-23T01:53:11.707Z,684.73
2022-08-23T01:54:11.709Z,684.50
2022-08-23T01:55:11.699Z,684.29
2022-08-23T01:56:11.677Z,684.05
2022-08-23T01:57:11.684Z,683.95
2022-08-23T01:58:11.670Z,683.85
2022-08-23T01:59:11.637Z,684.02
2022-08-23T02:00:11.629Z,684.38
2022-08-23T02:01:11.740Z,684.59
2022-08-23T02:02:11.624Z,685.32
2022-08-23T02:03:11.617Z,685.92
2022-08-23T02:04:11.591Z,686.56
2022-08-23T02:05:11.589Z,686.99
2022-08-23T02:06:11.567Z,687.47
2022-08-23T02:07:11.557Z,688.29
2022-08-23T02:08:11.580Z,689.05
2022-08-23T02:09:17.409Z,689.80
2022-08-23T02:10:12.529Z,690.12
2022-08-23T02:11:11.510Z,690.32
2022-08-23T02:12:11.500Z,690.38
2022-08-23T02:13:11.512Z,690.25
2022-08-23T02:14:11.488Z,690.11
2022-08-23T02:15:11.470Z,689.96
2022-08-23T02:16:11.477Z,690.13
2022-08-23T02:17:11.462Z,689.94
2022-08-23T02:18:11.432Z,689.92
2022-08-23T02:19:11.434Z,690.32
2022-08-23T02:20:11.423Z,691.07
2022-08-23T02:21:11.422Z,691.63
2022-08-23T02:22:11.412Z,692.38
2022-08-23T02:23:11.394Z,693.42
2022-08-23T02:24:11.365Z,693.65
2022-08-23T02:25:11.356Z,694.54
2022-08-23T02:26:11.349Z,694.71
2022-08-23T02:27:11.343Z,695.33
2022-08-23T02:28:11.341Z,695.61
2022-08-23T02:29:11.322Z,695.69
2022-08-23T02:30:11.296Z,695.77
2022-08-23T02:31:11.404Z,695.92
2022-08-23T02:32:11.308Z,695.88
2022-08-23T02:33:11.263Z,695.79
2022-08-23T02:35:21.559Z,692.64
2022-08-23T02:37:21.520Z,694.63
2022-08-23T02:38:21.483Z,694.69
2022-08-23T02:39:21.476Z,694.02
2022-08-23T02:40:21.507Z,693.66
2022-08-23T02:41:21.449Z,693.45
2022-08-23T02:42:21.477Z,692.80
2022-08-23T02:43:21.432Z,692.52
2022-08-23T02:44:21.435Z,692.66
2022-08-23T02:45:21.413Z,693.38
2022-08-23T02:46:21.403Z,693.53
2022-08-23T02:47:21.403Z,693.65
2022-08-23T02:48:21.366Z,693.47
2022-08-23T02:49:21.367Z,693.35
2022-08-23T02:50:21.356Z,694.29
2022-08-23T02:51:21.333Z,694.54
2022-08-23T02:52:21.353Z,695.16
2022-08-23T02:53:21.314Z,695.50
2022-08-23T02:54:21.304Z,696.01
2022-08-23T02:55:21.306Z,696.52
2022-08-23T02:56:21.997Z,696.77
2022-08-23T02:57:21.305Z,697.17
2022-08-23T02:58:21.278Z,697.06
2022-08-23T02:59:21.256Z,697.65
2022-08-23T03:00:21.247Z,698.06
2022-08-23T03:01:21.236Z,698.19
2022-08-23T03:02:21.289Z,698.33
2022-08-23T03:03:22.529Z,698.20
2022-08-23T03:04:21.209Z,698.08
2022-08-23T03:05:21.186Z,698.13
2022-08-23T03:06:25.932Z,697.88
2022-08-23T03:07:22.187Z,697.81
2022-08-23T03:08:21.156Z,697.88
2022-08-23T03:09:21.146Z,698.51
2022-08-23T03:10:21.149Z,698.62
2022-08-23T03:11:21.149Z,698.89
2022-08-23T03:12:21.152Z,698.75
2022-08-23T03:13:21.104Z,698.69
2022-08-23T03:14:21.091Z,698.67
2022-08-23T03:15:21.081Z,699.24
2022-08-23T03:16:21.060Z,699.65
2022-08-23T03:17:21.061Z,700.30
2022-08-23T03:18:21.030Z,700.68
2022-08-23T03:19:21.020Z,700.91
2022-08-23T03:20:21.038Z,701.00
2022-08-23T03:21:20.992Z,701.13
2022-08-23T03:22:21.001Z,701.40
2022-08-23T03:23:20.984Z,701.17
2022-08-23T03:24:20.972Z,700.60
2022-08-23T03:25:20.953Z,700.75
2022-08-23T03:26:20.956Z,700.71
2022-08-23T03:27:20.944Z,700.67
2022-08-23T03:28:20.923Z,700.72
2022-08-23T03:29:20.913Z,701.39
2022-08-23T03:30:20.884Z,702.09
2022-08-23T03:31:20.816Z,702.56
2022-08-23T03:32:20.816Z,703.00
2022-08-23T03:33:20.806Z,702.95
2022-08-23T03:34:20.785Z,703.49
2022-08-23T03:35:20.779Z,703.86
2022-08-23T03:36:20.759Z,704.21
2022-08-23T03:37:21.766Z,704.43
2022-08-23T03:38:20.738Z,703.93
2022-08-23T03:39:20.729Z,703.80
2022-08-23T03:40:20.804Z,703.87
2022-08-23T03:41:20.705Z,704.11
2022-08-23T03:42:20.711Z,704.69
2022-08-23T03:43:21.677Z,704.74
2022-08-23T03:44:20.668Z,705.28
2022-08-23T03:45:20.668Z,705.75
2022-08-23T03:46:20.640Z,706.54
2022-08-23T03:47:20.648Z,706.87
2022-08-23T03:48:20.618Z,706.81
2022-08-23T03:49:20.608Z,706.78
2022-08-23T03:50:20.598Z,706.97
2022-08-23T03:51:20.584Z,707.41
2022-08-23T03:52:20.599Z,707.76
2022-08-23T03:53:20.559Z,708.32
2022-08-23T03:54:20.551Z,708.60
2022-08-23T03:55:20.540Z,708.88
2022-08-23T03:56:20.522Z,709.34
2022-08-23T03:57:20.545Z,709.59
2022-08-23T03:58:20.491Z,709.89
2022-08-23T03:59:20.484Z,710.73
2022-08-23T04:00:20.775Z,711.28
2022-08-23T04:01:20.921Z,713.13
2022-08-23T04:02:20.475Z,714.16
2022-08-23T04:03:20.449Z,715.46
2022-08-23T04:04:20.432Z,716.33
2022-08-23T04:05:20.423Z,716.74
2022-08-23T04:06:20.412Z,716.77
2022-08-23T04:07:20.435Z,717.28
2022-08-23T04:08:23.271Z,717.89
2022-08-23T04:09:21.390Z,718.12
2022-08-23T04:10:20.366Z,718.49
2022-08-23T04:11:20.357Z,718.40
2022-08-23T04:12:20.366Z,718.10
2022-08-23T04:13:20.338Z,717.45
2022-08-23T04:14:20.318Z,717.59
2022-08-23T04:15:20.320Z,717.41
2022-08-23T04:16:20.295Z,717.21
2022-08-23T04:17:20.957Z,717.21
2022-08-23T04:18:20.285Z,716.95
2022-08-23T04:19:20.267Z,716.87
2022-08-23T04:20:20.255Z,717.14
2022-08-23T04:21:20.246Z,717.04
2022-08-23T04:22:20.236Z,716.86
2022-08-23T04:23:20.217Z,717.05
2022-08-23T04:24:20.198Z,716.71
2022-08-23T04:25:33.801Z,716.21
2022-08-23T04:26:21.176Z,716.36
2022-08-23T04:27:20.189Z,716.34
2022-08-23T04:28:20.170Z,716.43
2022-08-23T04:29:33.533Z,716.66
2022-08-23T04:30:21.138Z,716.65
2022-08-23T04:31:20.130Z,717.24
2022-08-23T04:32:28.248Z,717.87
2022-08-23T04:33:21.376Z,718.92
2022-08-23T04:34:20.219Z,719.83
2022-08-23T04:35:20.079Z,720.51
2022-08-23T04:36:20.067Z,720.66
2022-08-23T04:37:20.078Z,721.30
2022-08-23T04:38:25.171Z,721.64
2022-08-23T04:39:21.020Z,721.91
2022-08-23T04:40:20.138Z,722.29
2022-08-23T04:41:20.010Z,722.36
2022-08-23T04:42:20.011Z,722.43
2022-08-23T04:43:19.992Z,722.92
2022-08-23T04:44:19.978Z,723.21
2022-08-23T04:45:19.963Z,723.39
2022-08-23T04:46:19.972Z,723.18
2022-08-23T04:47:19.962Z,723.16
2022-08-23T04:48:19.942Z,723.68
2022-08-23T04:49:19.928Z,724.04
2022-08-23T04:50:19.914Z,723.85
2022-08-23T04:51:19.891Z,723.54
2022-08-23T04:52:19.939Z,723.87
2022-08-23T04:53:19.882Z,724.34
2022-08-23T04:54:21.336Z,724.62
2022-08-23T04:55:19.866Z,724.68
2022-08-23T04:56:19.853Z,724.63
2022-08-23T04:57:19.839Z,724.34
2022-08-23T04:58:19.836Z,723.99
2022-08-23T04:59:19.815Z,723.99
2022-08-23T05:00:19.797Z,724.03
2022-08-23T05:01:19.808Z,724.09
2022-08-23T05:02:19.776Z,724.60
2022-08-23T05:03:19.790Z,725.46
2022-08-23T05:04:19.768Z,726.04
2022-08-23T05:05:19.745Z,727.20
2022-08-23T05:06:19.725Z,728.60
2022-08-23T05:07:19.764Z,729.44
2022-08-23T05:08:20.741Z,729.69
2022-08-23T05:09:20.789Z,729.44
2022-08-23T05:10:19.701Z,728.57
2022-08-23T05:11:19.677Z,727.54
2022-08-23T05:12:19.688Z,726.95
2022-08-23T05:13:19.662Z,727.67
2022-08-23T05:14:19.637Z,727.92
2022-08-23T05:15:19.637Z,727.49
2022-08-23T05:16:19.618Z,727.39
2022-08-23T05:17:19.639Z,727.23
2022-08-23T05:18:19.600Z,727.28
2022-08-23T05:19:19.587Z,726.56
2022-08-23T05:20:19.569Z,726.26
2022-08-23T05:21:19.571Z,726.07
2022-08-23T05:22:19.548Z,725.52
2022-08-23T05:23:19.570Z,725.17
2022-08-23T05:24:19.527Z,724.88
2022-08-23T05:25:19.535Z,725.02
2022-08-23T05:26:19.529Z,725.09
2022-08-23T05:27:19.499Z,725.26
2022-08-23T05:28:19.498Z,725.22
2022-08-23T05:29:19.481Z,724.80
2022-08-23T05:30:19.468Z,725.02
2022-08-23T05:31:19.440Z,724.52
2022-08-23T05:32:19.450Z,724.18
2022-08-23T05:33:19.432Z,723.92
2022-08-23T05:34:22.651Z,722.21
2022-08-23T05:35:19.451Z,721.85
2022-08-23T05:36:19.404Z,723.23
2022-08-23T05:37:19.373Z,722.79
2022-08-23T05:38:20.869Z,717.76
2022-08-23T05:39:32.786Z,721.90
2022-08-23T05:40:20.385Z,721.12
2022-08-23T05:41:20.944Z,720.54
2022-08-23T05:42:19.321Z,719.83
2022-08-23T05:43:19.324Z,718.80
2022-08-23T05:44:19.313Z,718.22
2022-08-23T05:45:21.759Z,717.34
2022-08-23T05:46:19.984Z,716.96
2022-08-23T05:47:24.761Z,716.52
2022-08-23T05:48:20.255Z,715.65
2022-08-23T05:49:19.239Z,714.57
2022-08-23T05:50:19.281Z,713.40
2022-08-23T05:51:19.207Z,712.23
2022-08-23T05:52:19.196Z,711.38
2022-08-23T05:53:19.204Z,710.17
2022-08-23T05:54:19.178Z,709.15
2022-08-23T05:55:19.183Z,708.52
2022-08-23T05:56:19.169Z,707.70
2022-08-23T05:57:19.138Z,707.11
2022-08-23T05:58:19.151Z,706.34
2022-08-23T05:59:19.135Z,705.78
2022-08-23T06:00:19.106Z,705.01
2022-08-23T06:01:19.138Z,704.28
2022-08-23T06:02:19.077Z,703.83
2022-08-23T06:03:19.127Z,704.24
2022-08-23T06:04:19.058Z,704.40
2022-08-23T06:05:19.057Z,704.97
2022-08-23T06:06:19.039Z,705.78
2022-08-23T06:07:19.027Z,705.56
2022-08-23T06:08:19.018Z,706.06
2022-08-23T06:09:19.026Z,706.14
2022-08-23T06:10:18.989Z,705.81
2022-08-23T06:11:18.991Z,704.41
2022-08-23T06:12:18.972Z,703.13
2022-08-23T06:13:19.002Z,702.03
2022-08-23T06:14:18.976Z,699.99
2022-08-23T06:15:18.942Z,697.76
2022-08-23T06:16:18.929Z,696.41
2022-08-23T06:17:18.910Z,694.33
2022-08-23T06:18:18.928Z,693.02
2022-08-23T06:19:18.892Z,692.03
2022-08-23T06:20:18.906Z,691.03
2022-08-23T06:21:18.872Z,690.70
2022-08-23T06:22:18.855Z,690.72
2022-08-23T06:23:18.862Z,690.00
2022-08-23T06:24:18.834Z,689.40
2022-08-23T06:25:18.822Z,688.30
2022-08-23T06:26:18.813Z,688.15
2022-08-23T06:27:18.823Z,680.99
2022-08-23T06:28:18.813Z,684.58
2022-08-23T06:29:19.799Z,671.82
2022-08-23T06:30:18.779Z,684.54
2022-08-23T06:31:18.797Z,675.44
2022-08-23T06:32:18.773Z,679.20
2022-08-23T06:33:18.780Z,668.95
2022-08-23T06:34:18.732Z,669.73
2022-08-23T06:35:38.203Z,680.76
2022-08-23T06:36:19.706Z,679.44
2022-08-23T06:37:18.684Z,678.78
2022-08-23T06:38:18.707Z,670.73
2022-08-23T06:39:18.666Z,675.56
2022-08-23T06:40:18.696Z,674.17
2022-08-23T06:41:18.650Z,665.64
2022-08-23T06:42:38.378Z,658.37
2022-08-23T06:43:19.627Z,671.34
2022-08-23T06:44:18.607Z,670.12
2022-08-23T06:45:18.607Z,666.55
2022-08-23T06:46:18.641Z,668.88
2022-08-23T06:47:18.569Z,667.65
2022-08-23T06:48:19.034Z,666.77
2022-08-23T06:49:18.558Z,666.66
2022-08-23T06:50:18.543Z,660.96
2022-08-23T06:51:18.553Z,665.10
2022-08-23T06:53:30.244Z,660.96
2022-08-23T06:54:29.825Z,662.59
2022-08-23T06:55:29.833Z,661.70
2022-08-23T06:56:29.884Z,661.40
2022-08-23T06:57:29.774Z,660.60
2022-08-23T06:58:29.783Z,660.12
2022-08-23T06:59:33.828Z,659.42
2022-08-23T07:00:29.770Z,658.71
2022-08-23T07:01:45.245Z,658.15
2022-08-23T07:02:30.815Z,658.27
2022-08-23T07:03:29.705Z,657.26
2022-08-23T07:04:30.690Z,656.61
2022-08-23T07:05:29.696Z,655.81
2022-08-23T07:06:29.692Z,654.80
2022-08-23T07:07:41.213Z,653.85
2022-08-23T07:09:44.891Z,650.60
2022-08-23T07:10:40.883Z,652.47
2022-08-23T07:11:40.862Z,651.96
2022-08-23T07:12:40.916Z,650.95
2022-08-23T07:13:41.029Z,650.55
2022-08-23T07:14:40.818Z,649.74
2022-08-23T07:15:40.829Z,649.61
2022-08-23T07:16:40.809Z,649.24
2022-08-23T07:17:40.837Z,649.05
2022-08-23T07:18:40.880Z,648.52
2022-08-23T07:19:40.778Z,648.11
2022-08-23T07:20:40.756Z,647.27
2022-08-23T07:21:40.770Z,647.00
2022-08-23T07:22:40.793Z,646.62
2022-08-23T07:23:43.785Z,642.65
2022-08-23T07:24:41.726Z,643.74
2022-08-23T07:25:40.691Z,647.43
2022-08-23T07:26:41.027Z,647.28
2022-08-23T07:27:40.701Z,646.96
2022-08-23T07:28:40.674Z,646.74
2022-08-23T07:29:40.662Z,645.39
2022-08-23T07:30:44.977Z,646.87
2022-08-23T07:31:40.719Z,645.77
2022-08-23T07:32:40.652Z,640.59
2022-08-23T07:33:40.632Z,646.05
2022-08-23T07:34:40.620Z,646.43
2022-08-23T07:35:40.606Z,647.88
2022-08-23T07:36:40.624Z,648.30
2022-08-23T07:37:40.605Z,650.55
2022-08-23T07:38:41.554Z,651.29
2022-08-23T07:39:40.548Z,651.29
2022-08-23T07:40:40.850Z,650.41
2022-08-23T07:41:40.534Z,648.46
2022-08-23T07:42:40.505Z,649.24
2022-08-23T07:43:40.541Z,646.42
2022-08-23T07:44:40.486Z,631.55
2022-08-23T07:45:40.492Z,641.19
2022-08-23T07:46:40.514Z,637.26
2022-08-23T07:47:40.467Z,634.14
2022-08-23T07:48:55.631Z,631.37
2022-08-23T07:49:41.426Z,629.38
2022-08-23T07:50:40.407Z,626.59
2022-08-23T07:51:41.397Z,623.95
2022-08-23T07:52:40.397Z,621.62
2022-08-23T07:53:43.022Z,619.91
2022-08-23T07:54:41.566Z,618.40
2022-08-23T07:55:40.370Z,617.53
2022-08-23T07:56:40.353Z,616.65
2022-08-23T07:57:40.379Z,615.61
2022-08-23T07:58:40.289Z,614.60
2022-08-23T07:59:40.320Z,614.14
2022-08-23T08:00:40.305Z,613.42
2022-08-23T08:01:40.394Z,613.39
2022-08-23T08:02:40.336Z,612.96
2022-08-23T08:03:40.237Z,612.29
2022-08-23T08:04:40.290Z,611.54
2022-08-23T08:05:40.303Z,610.83
2022-08-23T08:06:40.224Z,610.60
2022-08-23T08:07:40.232Z,610.39
2022-08-23T08:08:40.237Z,610.51
2022-08-23T08:09:40.187Z,610.28
2022-08-23T08:10:40.152Z,610.37
2022-08-23T08:11:40.183Z,610.54
2022-08-23T08:12:40.315Z,610.55
2022-08-23T08:13:40.174Z,610.28
2022-08-23T08:14:40.223Z,609.59
2022-08-23T08:15:40.148Z,608.83
2022-08-23T08:16:40.139Z,607.65
2022-08-23T08:17:40.084Z,606.63
2022-08-23T08:18:40.096Z,605.85
2022-08-23T08:19:40.076Z,605.43
2022-08-23T08:20:40.066Z,604.65
2022-08-23T08:21:42.058Z,603.95
2022-08-23T08:22:42.357Z,603.26
2022-08-23T08:23:40.024Z,602.73
2022-08-23T08:24:42.728Z,602.49
2022-08-23T08:25:40.017Z,602.06
2022-08-23T08:26:39.977Z,601.53
2022-08-23T08:27:39.988Z,600.98
2022-08-23T08:28:40.857Z,601.17
2022-08-23T08:29:39.980Z,601.34
2022-08-23T08:30:39.927Z,601.11
2022-08-23T08:31:40.050Z,600.52
2022-08-23T08:32:47.041Z,600.35
2022-08-23T08:33:40.948Z,600.05
2022-08-23T08:34:39.909Z,599.70
2022-08-23T08:35:39.876Z,599.56
2022-08-23T08:36:39.919Z,598.59
2022-08-23T08:37:39.938Z,597.93
2022-08-23T08:38:50.264Z,597.85
2022-08-23T08:39:40.837Z,597.69
2022-08-23T08:40:39.864Z,597.49
2022-08-23T08:41:39.801Z,596.74
2022-08-23T08:42:39.931Z,595.61
2022-08-23T08:43:40.522Z,594.37
2022-08-23T08:44:39.799Z,593.52
2022-08-23T08:45:39.776Z,592.78
2022-08-23T08:46:39.785Z,591.99
2022-08-23T08:47:39.751Z,591.56
2022-08-23T08:48:39.724Z,591.64
2022-08-23T08:49:39.704Z,591.35
2022-08-23T08:50:39.686Z,591.35
2022-08-23T08:51:39.664Z,590.59
2022-08-23T08:52:39.674Z,590.26
2022-08-23T08:53:39.678Z,589.83
2022-08-23T08:54:39.695Z,589.97
2022-08-23T08:55:39.805Z,589.94
2022-08-23T08:56:39.645Z,590.21
2022-08-23T08:57:39.749Z,590.02
2022-08-23T08:58:39.616Z,589.37
2022-08-23T08:59:39.585Z,588.76
2022-08-23T09:00:39.582Z,587.98
2022-08-23T09:01:39.617Z,587.43
2022-08-23T09:02:39.612Z,587.01
2022-08-23T09:03:39.564Z,587.07
2022-08-23T09:04:39.566Z,586.69
2022-08-23T09:05:39.538Z,586.08
2022-08-23T09:06:39.537Z,585.33
2022-08-23T09:07:39.508Z,584.74
2022-08-23T09:08:39.509Z,584.19
2022-08-23T09:09:39.499Z,583.97
2022-08-23T09:10:39.548Z,583.94
2022-08-23T09:11:39.449Z,583.33
2022-08-23T09:12:39.530Z,582.62
2022-08-23T09:13:41.955Z,581.95
2022-08-23T09:14:40.475Z,581.54
2022-08-23T09:15:39.497Z,581.31
2022-08-23T09:16:39.452Z,581.31
2022-08-23T09:17:39.466Z,581.23
2022-08-23T09:18:39.423Z,581.57
2022-08-23T09:19:39.343Z,581.88
2022-08-23T09:20:39.370Z,581.66
2022-08-23T09:21:39.330Z,581.27
2022-08-23T09:22:39.322Z,580.77
2022-08-23T09:23:39.383Z,579.97
2022-08-23T09:24:39.711Z,579.12
2022-08-23T09:25:39.343Z,578.64
2022-08-23T09:26:39.324Z,578.22
2022-08-23T09:27:39.315Z,578.00
2022-08-23T09:28:39.284Z,578.18
2022-08-23T09:29:39.264Z,578.82
2022-08-23T09:30:39.783Z,579.69
2022-08-23T09:31:39.307Z,580.35
2022-08-23T09:32:39.256Z,580.15
2022-08-23T09:33:39.236Z,579.96
2022-08-23T09:34:39.243Z,579.73
2022-08-23T09:35:39.190Z,579.23
2022-08-23T09:36:39.196Z,578.70
2022-08-23T09:37:39.177Z,578.17
2022-08-23T09:38:43.207Z,577.73
2022-08-23T09:39:39.141Z,577.21
2022-08-23T09:40:41.540Z,576.05
2022-08-23T09:41:39.117Z,575.21
2022-08-23T09:42:39.117Z,574.85
2022-08-23T09:43:39.129Z,574.07
2022-08-23T09:44:39.089Z,573.86
2022-08-23T09:45:39.059Z,574.38
2022-08-23T09:46:39.145Z,575.02
2022-08-23T09:47:44.568Z,575.05
2022-08-23T09:48:40.082Z,575.06
2022-08-23T09:49:39.072Z,575.16
2022-08-23T09:50:39.051Z,575.32
2022-08-23T09:51:38.992Z,575.20
2022-08-23T09:52:39.012Z,574.85
2022-08-23T09:53:40.867Z,574.17
2022-08-23T09:54:41.225Z,573.91
2022-08-23T09:55:38.948Z,573.47
2022-08-23T09:56:38.962Z,572.36
2022-08-23T09:57:38.953Z,571.16
2022-08-23T09:58:38.940Z,570.36
2022-08-23T09:59:38.904Z,569.16
2022-08-23T10:00:38.894Z,568.75
2022-08-23T10:01:39.532Z,568.27
2022-08-23T10:02:38.885Z,568.04
2022-08-23T10:03:38.906Z,567.89
2022-08-23T10:04:38.905Z,567.96
2022-08-23T10:05:38.865Z,567.72
2022-08-23T10:06:38.846Z,566.86
2022-08-23T10:07:42.436Z,566.26
2022-08-23T10:08:43.085Z,565.99
2022-08-23T10:09:38.810Z,566.21
2022-08-23T10:10:38.774Z,565.77
2022-08-23T10:11:38.788Z,565.12
2022-08-23T10:12:39.003Z,564.59
2022-08-23T10:13:38.778Z,564.30
2022-08-23T10:14:38.738Z,564.04
2022-08-23T10:15:39.137Z,563.96
2022-08-23T10:16:38.713Z,563.14
2022-08-23T10:17:38.721Z,563.03
2022-08-23T10:18:38.689Z,562.48
2022-08-23T10:19:40.471Z,561.46
2022-08-23T10:20:38.702Z,561.35
2022-08-23T10:21:38.752Z,561.40
2022-08-23T10:22:38.675Z,562.76
2022-08-23T10:23:38.712Z,563.31
2022-08-23T10:24:38.653Z,563.48
2022-08-23T10:25:39.352Z,562.95
2022-08-23T10:26:38.577Z,562.69
2022-08-23T10:27:38.670Z,562.03
2022-08-23T10:28:39.569Z,561.02
2022-08-23T10:29:38.626Z,560.23
2022-08-23T10:30:38.604Z,559.88
2022-08-23T10:31:38.615Z,559.01
2022-08-23T10:32:40.413Z,558.34
2022-08-23T10:33:38.539Z,557.89
2022-08-23T10:34:38.542Z,558.31
2022-08-23T10:35:38.517Z,558.13
2022-08-23T10:36:38.556Z,557.83
2022-08-23T10:37:38.589Z,557.46
2022-08-23T10:38:38.535Z,556.98
2022-08-23T10:39:38.496Z,556.61
2022-08-23T10:40:38.475Z,556.63
2022-08-23T10:41:38.510Z,555.85
2022-08-23T10:42:38.457Z,555.55
2022-08-23T10:43:38.435Z,555.01
2022-08-23T10:44:38.450Z,555.44
2022-08-23T10:45:38.417Z,556.46
2022-08-23T10:46:38.538Z,556.41
2022-08-23T10:47:38.458Z,555.97
2022-08-23T10:48:38.391Z,555.45
2022-08-23T10:49:38.391Z,554.99
2022-08-23T10:50:38.402Z,553.49
2022-08-23T10:51:40.540Z,552.34
2022-08-23T10:52:38.398Z,552.76
2022-08-23T10:53:38.311Z,553.49
2022-08-23T10:54:38.300Z,554.00
2022-08-23T10:55:38.299Z,553.59
2022-08-23T10:56:41.661Z,552.36
2022-08-23T10:57:39.293Z,552.29
2022-08-23T10:58:38.278Z,552.34
2022-08-23T10:59:38.614Z,551.12
2022-08-23T11:00:38.269Z,550.47
2022-08-23T11:01:38.320Z,549.75
2022-08-23T11:02:38.319Z,549.03
2022-08-23T11:03:38.186Z,549.25
2022-08-23T11:04:38.232Z,548.86
2022-08-23T11:05:38.264Z,548.29
2022-08-23T11:06:38.137Z,548.29
2022-08-23T11:07:38.178Z,549.29
2022-08-23T11:08:38.146Z,549.50
2022-08-23T11:09:38.136Z,548.87
2022-08-23T11:10:38.115Z,548.07
2022-08-23T11:11:38.190Z,547.38
2022-08-23T11:12:38.157Z,546.45
2022-08-23T11:13:38.086Z,546.28
2022-08-23T11:14:38.056Z,546.51
2022-08-23T11:15:38.128Z,543.80
2022-08-23T11:16:39.059Z,546.36
2022-08-23T11:17:38.057Z,545.45
2022-08-23T11:18:38.054Z,544.39
2022-08-23T11:19:38.100Z,543.71
2022-08-23T11:20:38.057Z,543.15
2022-08-23T11:21:38.029Z,543.22
2022-08-23T11:22:37.997Z,543.51
2022-08-23T11:23:38.008Z,543.76
2022-08-23T11:24:38.055Z,543.52
2022-08-23T11:25:37.950Z,543.37
2022-08-23T11:26:37.987Z,542.86
2022-08-23T11:27:37.974Z,542.06
2022-08-23T11:28:38.009Z,541.37
2022-08-23T11:29:38.019Z,540.03
2022-08-23T11:30:37.959Z,540.85
2022-08-23T11:31:37.968Z,541.05
2022-08-23T11:32:37.887Z,539.99
2022-08-23T11:33:37.846Z,538.43
2022-08-23T11:34:37.847Z,537.39
2022-08-23T11:35:37.893Z,536.84
2022-08-23T11:36:38.843Z,536.67
2022-08-23T11:37:37.814Z,537.64
2022-08-23T11:38:37.948Z,536.93
2022-08-23T11:39:37.912Z,536.81
2022-08-23T11:40:38.828Z,535.98
2022-08-23T11:41:37.823Z,534.59
2022-08-23T11:42:37.777Z,534.53
2022-08-23T11:43:37.974Z,533.90
2022-08-23T11:44:38.776Z,533.68
2022-08-23T11:45:37.770Z,533.74
2022-08-23T11:46:38.307Z,533.91
2022-08-23T11:47:37.700Z,533.61
2022-08-23T11:48:37.767Z,532.69
2022-08-23T11:49:38.719Z,531.56
2022-08-23T11:50:37.699Z,530.82
2022-08-23T11:51:37.649Z,530.49
2022-08-23T11:52:37.691Z,530.39
2022-08-23T11:53:37.669Z,529.82
2022-08-23T11:54:37.711Z,530.17
2022-08-23T11:55:37.661Z,528.53
2022-08-23T11:56:37.880Z,528.49
2022-08-23T11:57:37.593Z,528.58
2022-08-23T11:58:37.634Z,528.04
2022-08-23T11:59:41.428Z,527.33
2022-08-23T12:00:37.633Z,526.90
2022-08-23T12:01:37.863Z,526.30
2022-08-23T12:02:37.649Z,526.58
2022-08-23T12:03:37.697Z,526.39
2022-08-23T12:04:37.536Z,519.60
2022-08-23T12:05:37.523Z,520.55
2022-08-23T12:06:39.236Z,523.84
2022-08-23T12:07:37.483Z,529.08
2022-08-23T12:08:37.495Z,522.77
2022-08-23T12:09:37.497Z,523.60
2022-08-23T12:10:37.454Z,529.23
2022-08-23T12:11:37.435Z,533.70
2022-08-23T12:12:40.163Z,534.01
2022-08-23T12:13:38.424Z,532.77
2022-08-23T12:14:37.406Z,529.50
2022-08-23T12:15:37.527Z,530.32
2022-08-23T12:16:37.419Z,529.08
2022-08-23T12:17:40.357Z,528.05
2022-08-23T12:18:37.390Z,526.16
2022-08-23T12:19:40.340Z,526.66
2022-08-23T12:20:37.337Z,518.76
2022-08-23T12:21:40.138Z,521.65
2022-08-23T12:22:37.359Z,520.78
2022-08-23T12:23:37.329Z,521.49
2022-08-23T12:24:37.300Z,519.00
2022-08-23T12:25:37.300Z,519.96
2022-08-23T12:26:37.328Z,522.28
2022-08-23T12:27:37.268Z,521.09
2022-08-23T12:28:38.057Z,522.33
2022-08-23T12:29:37.302Z,526.73
2022-08-23T12:30:41.087Z,527.34
2022-08-23T12:31:38.308Z,524.49
2022-08-23T12:32:37.241Z,524.53